createdAt,value
2023-04-15T00:00:58.358Z,100022.66
2023-04-15T00:03:25.302Z,100018.84
2023-04-15T00:05:52.193Z,100015.19
2023-04-15T00:08:18.799Z,100011.31
2023-04-15T00:10:45.425Z,100022.25
2023-04-15T00:13:12.048Z,100016.66
2023-04-15T00:15:38.809Z,100017.84
2023-04-15T00:18:06.829Z,100019.00
2023-04-15T00:20:33.883Z,100016.72
2023-04-15T00:23:00.645Z,100010.34
2023-04-15T00:25:27.207Z,100015.06
2023-04-15T00:27:53.721Z,100007.97
2023-04-15T00:30:20.553Z,99858.13
2023-04-15T00:32:47.157Z,99997.50
2023-04-15T00:35:15.445Z,100013.66
2023-04-15T00:37:42.342Z,100013.97
2023-04-15T00:40:12.885Z,99992.56
2023-04-15T00:42:39.493Z,99997.75
2023-04-15T00:45:06.949Z,100014.78
2023-04-15T00:47:33.849Z,99999.94
2023-04-15T00:50:00.440Z,100012.44
2023-04-15T00:52:28.461Z,100010.97
2023-04-15T00:54:55.732Z,100010.22
2023-04-15T00:57:22.555Z,100006.91
2023-04-15T00:59:49.160Z,100002.94
2023-04-15T01:02:15.755Z,99961.53
2023-04-15T01:04:43.317Z,100010.94
2023-04-15T01:07:09.920Z,100012.16
2023-04-15T01:09:38.759Z,100012.53
2023-04-15T01:12:06.857Z,100006.72
2023-04-15T01:14:33.756Z,100003.53
2023-04-15T01:17:00.272Z,100007.19
2023-04-15T01:19:26.969Z,100010.72
2023-04-15T01:21:53.543Z,100007.28
2023-04-15T01:24:20.201Z,100009.03
2023-04-15T01:26:48.079Z,100008.59
2023-04-15T01:29:14.600Z,100006.28
2023-04-15T01:31:41.195Z,99985.69
2023-04-15T01:34:07.724Z,100008.53
2023-04-15T01:36:34.332Z,100007.78
2023-04-15T01:39:01.104Z,100007.97
2023-04-15T01:41:28.135Z,100015.03
2023-04-15T01:43:56.313Z,100013.09
2023-04-15T01:46:23.132Z,99982.44
2023-04-15T01:48:49.869Z,100006.50
2023-04-15T01:51:16.550Z,100006.22
2023-04-15T01:53:43.085Z,100008.53
2023-04-15T01:56:09.725Z,100011.88
2023-04-15T01:58:36.328Z,100001.38
2023-04-15T02:01:04.544Z,99918.06
2023-04-15T02:03:32.033Z,100005.66
2023-04-15T02:05:58.994Z,100006.50
2023-04-15T02:08:27.707Z,100006.78
2023-04-15T02:10:54.309Z,100007.81
2023-04-15T02:13:20.867Z,100001.97
2023-04-15T02:15:49.229Z,100002.06
2023-04-15T02:18:17.364Z,99980.59
2023-04-15T02:20:44.156Z,100007.34
2023-04-15T02:23:10.710Z,100013.22
2023-04-15T02:25:37.322Z,100003.19
2023-04-15T02:28:05.460Z,100013.00
2023-04-15T02:30:32.145Z,99991.53
2023-04-15T02:33:02.370Z,100000.84
2023-04-15T02:35:30.394Z,100015.13
2023-04-15T02:37:57.588Z,100006.88
2023-04-15T02:40:24.258Z,100029.66
2023-04-15T02:42:50.978Z,100021.53
2023-04-15T02:45:18.394Z,100029.47
2023-04-15T02:47:44.947Z,100013.75
2023-04-15T02:50:12.834Z,100022.94
2023-04-15T02:52:42.944Z,100026.22
2023-04-15T02:55:10.538Z,100034.47
2023-04-15T02:57:37.508Z,100024.97
2023-04-15T03:00:07.744Z,100025.47
2023-04-15T03:02:35.451Z,100031.47
2023-04-15T03:05:02.651Z,99977.19
2023-04-15T03:07:29.464Z,99998.47
2023-04-15T03:09:57.609Z,100032.88
2023-04-15T03:12:24.799Z,100028.78
2023-04-15T03:14:54.356Z,100027.09
2023-04-15T03:17:26.159Z,100023.91
2023-04-15T03:19:52.940Z,100029.66
2023-04-15T03:22:19.702Z,100022.78
2023-04-15T03:24:46.710Z,100043.91
2023-04-15T03:27:14.586Z,100047.22
2023-04-15T03:29:41.439Z,100050.03
2023-04-15T03:32:08.074Z,100013.78
2023-04-15T03:34:34.635Z,100047.50
2023-04-15T03:37:01.393Z,100050.19
2023-04-15T03:39:28.019Z,100045.91
2023-04-15T03:41:54.515Z,100054.81
2023-04-15T03:44:22.434Z,100055.09
2023-04-15T03:46:49.188Z,100056.19
2023-04-15T03:49:15.909Z,100052.78
2023-04-15T03:51:42.419Z,100049.50
2023-04-15T03:54:09.024Z,100046.88
2023-04-15T03:56:35.523Z,100049.56
2023-04-15T03:59:02.477Z,100045.56
2023-04-15T04:01:30.726Z,99990.34
2023-04-15T04:03:57.563Z,100048.09
2023-04-15T04:06:24.175Z,100046.47
2023-04-15T04:08:50.819Z,100056.72
2023-04-15T04:11:17.503Z,100058.47
2023-04-15T04:13:44.092Z,100046.66
2023-04-15T04:16:10.716Z,100032.53
2023-04-15T04:18:38.735Z,100060.31
2023-04-15T04:21:06.170Z,100056.31
2023-04-15T04:23:33.034Z,100059.75
2023-04-15T04:25:59.600Z,100055.66
2023-04-15T04:28:26.197Z,100014.06
2023-04-15T04:30:52.804Z,100051.66
2023-04-15T04:33:19.646Z,100026.09
2023-04-15T04:35:47.573Z,100055.72
2023-04-15T04:38:14.178Z,100059.19
2023-04-15T04:40:40.766Z,99920.75
2023-04-15T04:43:07.704Z,100063.03
2023-04-15T04:45:34.304Z,100068.41
2023-04-15T04:48:01.409Z,100070.06
2023-04-15T04:50:27.964Z,100067.66
2023-04-15T04:52:56.191Z,100061.69
2023-04-15T04:55:22.752Z,100064.13
2023-04-15T04:57:49.327Z,100057.19
2023-04-15T05:00:16.110Z,100071.75
2023-04-15T05:02:42.860Z,100075.38
2023-04-15T05:05:10.103Z,99922.34
2023-04-15T05:07:37.006Z,100083.16
2023-04-15T05:10:06.232Z,100078.81
2023-04-15T05:12:33.092Z,100090.03
2023-04-15T05:14:59.605Z,100090.84
2023-04-15T05:17:26.251Z,100091.69
2023-04-15T05:19:52.805Z,100095.06
2023-04-15T05:22:19.382Z,100100.91
2023-04-15T05:24:45.931Z,100045.47
2023-04-15T05:27:13.930Z,100101.41
2023-04-15T05:29:40.495Z,100100.22
2023-04-15T05:32:07.144Z,100104.25
2023-04-15T05:34:33.667Z,100035.00
2023-04-15T05:37:00.364Z,100087.38
2023-04-15T05:39:26.920Z,100112.56
2023-04-15T05:41:53.470Z,100114.13
2023-04-15T05:44:21.400Z,100113.22
2023-04-15T05:46:47.980Z,100124.66
2023-04-15T05:49:14.503Z,100132.09
2023-04-15T05:51:41.102Z,100120.88
2023-04-15T05:54:07.618Z,100134.34
2023-04-15T05:56:34.208Z,100137.91
2023-04-15T05:59:00.963Z,100137.38
2023-04-15T06:01:29.023Z,100140.25
2023-04-15T06:03:55.962Z,100117.19
2023-04-15T06:06:22.689Z,100139.72
2023-04-15T06:08:49.202Z,100134.13
2023-04-15T06:11:15.746Z,100145.31
2023-04-15T06:13:42.306Z,100146.78
2023-04-15T06:16:08.985Z,100138.28
2023-04-15T06:18:36.874Z,100148.19
2023-04-15T06:21:04.307Z,100149.72
2023-04-15T06:23:31.396Z,100154.78
2023-04-15T06:25:57.980Z,100156.31
2023-04-15T06:28:24.749Z,100162.63
2023-04-15T06:30:51.285Z,100130.38
2023-04-15T06:33:17.838Z,100153.19
2023-04-15T06:35:45.795Z,100160.59
2023-04-15T06:38:12.339Z,100158.59
2023-04-15T06:40:38.937Z,100158.16
2023-04-15T06:43:05.493Z,100163.88
2023-04-15T06:45:32.129Z,100160.69
2023-04-15T06:47:58.724Z,100171.00
2023-04-15T06:50:25.324Z,100171.34
2023-04-15T06:52:54.099Z,100169.88
2023-04-15T06:55:20.883Z,100169.59
2023-04-15T06:57:47.513Z,100180.03
2023-04-15T07:00:14.497Z,100176.41
2023-04-15T07:02:41.125Z,100180.38
2023-04-15T07:05:08.056Z,100176.44
2023-04-15T07:07:34.579Z,100167.28
2023-04-15T07:10:02.496Z,100183.59
2023-04-15T07:12:29.152Z,100190.28
2023-04-15T07:14:55.759Z,100134.59
2023-04-15T07:17:22.348Z,100178.81
2023-04-15T07:19:48.957Z,100190.22
2023-04-15T07:22:15.537Z,100186.94
2023-04-15T07:24:42.144Z,100180.81
2023-04-15T07:27:10.077Z,100177.00
2023-04-15T07:29:36.620Z,100178.72
2023-04-15T07:32:03.622Z,100178.47
2023-04-15T07:34:31.416Z,100178.16
2023-04-15T07:36:59.050Z,100179.81
2023-04-15T07:39:25.577Z,100170.06
2023-04-15T07:41:52.114Z,100185.94
2023-04-15T07:44:20.094Z,100188.50
2023-04-15T07:46:47.768Z,100193.69
2023-04-15T07:49:14.353Z,100189.66
2023-04-15T07:51:40.913Z,100192.31
2023-04-15T07:54:07.471Z,100195.19
2023-04-15T07:56:34.000Z,100185.47
2023-04-15T07:59:00.737Z,100190.03
2023-04-15T08:01:28.728Z,100190.69
2023-04-15T08:03:55.456Z,100195.63
2023-04-15T08:06:22.185Z,100186.66
2023-04-15T08:08:48.766Z,100189.78
2023-04-15T08:11:15.360Z,100187.78
2023-04-15T08:13:41.922Z,100194.53
2023-04-15T08:16:18.562Z,100192.50
2023-04-15T08:18:46.942Z,100193.50
2023-04-15T08:21:13.578Z,100197.13
2023-04-15T08:23:40.541Z,100187.16
2023-04-15T08:26:07.110Z,100190.84
2023-04-15T08:28:33.819Z,100191.28
2023-04-15T08:31:00.464Z,100196.50
2023-04-15T08:33:27.034Z,100195.13
2023-04-15T08:35:54.890Z,100205.66
2023-04-15T08:38:21.476Z,100215.06
2023-04-15T08:40:48.039Z,100203.91
2023-04-15T08:43:18.733Z,100206.56
2023-04-15T08:45:46.642Z,100205.72
2023-04-15T08:48:15.545Z,100220.94
2023-04-15T08:50:42.069Z,100197.28
2023-04-15T08:53:10.625Z,100215.94
2023-04-15T08:55:42.392Z,100218.78
2023-04-15T08:58:09.394Z,100220.66
2023-04-15T09:00:36.040Z,100225.84
2023-04-15T09:03:04.354Z,100219.47
2023-04-15T09:05:32.453Z,100221.44
2023-04-15T09:07:59.217Z,100228.41
2023-04-15T09:10:27.347Z,100229.25
2023-04-15T09:12:54.434Z,100229.25
2023-04-15T09:15:21.046Z,100227.50
2023-04-15T09:17:47.771Z,100235.81
2023-04-15T09:20:15.677Z,100227.25
2023-04-15T09:22:43.629Z,100243.03
2023-04-15T09:25:28.088Z,100248.03
2023-04-15T09:27:56.207Z,100243.72
2023-04-15T09:30:22.827Z,100241.41
2023-04-15T09:32:50.743Z,100254.50
2023-04-15T09:35:18.142Z,100247.53
2023-04-15T09:37:44.776Z,100246.06
2023-04-15T09:40:12.493Z,100245.56
2023-04-15T09:42:54.577Z,100263.16
2023-04-15T09:45:21.933Z,100263.81
2023-04-15T09:47:48.531Z,100264.81
2023-04-15T09:50:15.408Z,100267.78
2023-04-15T09:52:42.767Z,100262.31
2023-04-15T09:55:10.432Z,100267.16
2023-04-15T09:57:38.084Z,100269.16
2023-04-15T10:00:08.441Z,100272.47
2023-04-15T10:02:36.758Z,100266.81
2023-04-15T10:05:04.256Z,100256.84
2023-04-15T10:07:30.912Z,100268.78
2023-04-15T10:09:59.795Z,100280.44
2023-04-15T10:12:27.545Z,100276.31
2023-04-15T10:14:58.929Z,100281.44
2023-04-15T10:17:29.831Z,100284.94
2023-04-15T10:19:57.823Z,100273.47
2023-04-15T10:22:26.214Z,100286.75
2023-04-15T10:24:53.490Z,100284.09
2023-04-15T10:27:20.902Z,100285.25
2023-04-15T10:29:48.291Z,100287.06
2023-04-15T10:32:15.924Z,100301.66
2023-04-15T10:34:45.442Z,100294.22
2023-04-15T10:37:11.972Z,100289.84
2023-04-15T10:39:42.855Z,100304.31
2023-04-15T10:42:10.819Z,100319.91
2023-04-15T10:44:37.935Z,100303.34
2023-04-15T10:47:09.838Z,100301.16
2023-04-15T10:49:44.982Z,100308.13
2023-04-15T10:52:11.778Z,100317.72
2023-04-15T10:54:38.392Z,100305.94
2023-04-15T10:57:13.893Z,100325.38
2023-04-15T11:00:16.231Z,100313.41
2023-04-15T11:02:45.342Z,100314.69
2023-04-15T11:05:14.150Z,100314.97
2023-04-15T11:07:47.975Z,100311.47
2023-04-15T11:10:47.962Z,100322.78
2023-04-15T11:13:19.712Z,100313.53
2023-04-15T11:15:47.680Z,100330.41
2023-04-15T11:18:15.997Z,100332.44
2023-04-15T11:20:45.718Z,100328.09
2023-04-15T11:23:13.061Z,100333.22
2023-04-15T11:25:41.585Z,100334.75
2023-04-15T11:28:08.615Z,100345.09
2023-04-15T11:30:36.730Z,100343.16
2023-04-15T11:33:05.654Z,100345.19
2023-04-15T11:35:32.449Z,100348.88
2023-04-15T11:38:03.370Z,100335.41
2023-04-15T11:40:31.134Z,100349.81
2023-04-15T11:43:16.219Z,100365.09
2023-04-15T11:45:51.581Z,100377.69
2023-04-15T11:48:19.244Z,100387.88
2023-04-15T11:50:45.981Z,100374.75
2023-04-15T11:53:14.140Z,100378.91
2023-04-15T11:55:45.174Z,100386.03
2023-04-15T11:58:15.652Z,100387.22
2023-04-15T12:00:47.139Z,100399.31
2023-04-15T12:03:17.026Z,100403.91
2023-04-15T12:06:09.768Z,100412.56
2023-04-15T12:08:51.357Z,100414.22
2023-04-15T12:11:18.531Z,100423.50
2023-04-15T12:13:46.019Z,100421.59
2023-04-15T12:16:12.951Z,100440.78
2023-04-15T12:18:39.561Z,100441.97
2023-04-15T12:21:09.714Z,100406.78
2023-04-15T12:23:37.482Z,100450.31
2023-04-15T12:26:06.524Z,100455.03
2023-04-15T12:28:34.504Z,100459.66
2023-04-15T12:31:07.437Z,100458.44
2023-04-15T12:33:34.358Z,100474.63
2023-04-15T12:36:01.028Z,100484.53
2023-04-15T12:38:27.952Z,100473.25
2023-04-15T12:40:54.613Z,100483.38
2023-04-15T12:43:22.563Z,100489.41
2023-04-15T12:45:49.228Z,100482.38
2023-04-15T12:48:16.082Z,100497.78
2023-04-15T12:50:42.629Z,100509.69
2023-04-15T12:53:09.227Z,100511.63
2023-04-15T12:55:35.744Z,100500.78
2023-04-15T12:58:02.298Z,100512.28
2023-04-15T13:00:30.510Z,100516.56
2023-04-15T13:02:57.479Z,100515.44
2023-04-15T13:05:24.317Z,100519.19
2023-04-15T13:07:55.140Z,100524.66
2023-04-15T13:10:25.274Z,100524.94
2023-04-15T13:12:52.025Z,100525.63
2023-04-15T13:15:18.629Z,100536.63
2023-04-15T13:17:46.683Z,100537.00
2023-04-15T13:20:13.281Z,100538.94
2023-04-15T13:22:40.034Z,100530.78
2023-04-15T13:25:07.432Z,100541.75
2023-04-15T13:27:34.003Z,100538.38
2023-04-15T13:30:01.013Z,100542.16
2023-04-15T13:32:27.587Z,100542.84
2023-04-15T13:34:55.466Z,100552.00
2023-04-15T13:37:26.373Z,100535.25
2023-04-15T13:39:52.979Z,100552.69
2023-04-15T13:42:19.733Z,100560.25
2023-04-15T13:44:46.340Z,100552.88
2023-04-15T13:47:12.923Z,100561.91
2023-04-15T13:49:39.552Z,100542.88
2023-04-15T13:52:07.576Z,100567.06
2023-04-15T13:54:37.849Z,100564.50
2023-04-15T13:57:05.144Z,100573.41
2023-04-15T13:59:32.782Z,100574.66
2023-04-15T14:01:59.404Z,100579.81
2023-04-15T14:04:26.195Z,100574.00
2023-04-15T14:06:52.981Z,100585.72
2023-04-15T14:09:20.875Z,100593.22
2023-04-15T14:11:47.453Z,100598.41
2023-04-15T14:14:15.281Z,100596.22
2023-04-15T14:16:43.187Z,100597.22
2023-04-15T14:19:10.141Z,100596.97
2023-04-15T14:21:36.681Z,100583.28
2023-04-15T14:24:03.587Z,100595.13
2023-04-15T14:26:31.603Z,100600.16
2023-04-15T14:28:58.194Z,100592.19
2023-04-15T14:31:24.805Z,100608.38
2023-04-15T14:33:51.313Z,100589.88
2023-04-15T14:36:18.113Z,100598.59
2023-04-15T14:38:45.130Z,100606.13
2023-04-15T14:41:12.680Z,100615.28
2023-04-15T14:43:40.585Z,100609.84
2023-04-15T14:46:07.183Z,100627.38
2023-04-15T14:48:33.818Z,100628.50
2023-04-15T14:51:00.520Z,100626.41
2023-04-15T14:53:27.037Z,100618.66
2023-04-15T14:55:53.637Z,100622.00
2023-04-15T14:58:20.168Z,100645.53
2023-04-15T15:00:48.217Z,100627.59
2023-04-15T15:03:14.987Z,100645.69
2023-04-15T15:05:43.128Z,100643.19
2023-04-15T15:08:10.357Z,100649.63
2023-04-15T15:10:49.063Z,100652.81
2023-04-15T15:13:16.920Z,100657.84
2023-04-15T15:15:43.720Z,100644.03
2023-04-15T15:18:11.767Z,100655.47
2023-04-15T15:20:38.369Z,100660.22
2023-04-15T15:23:04.980Z,100653.53
2023-04-15T15:25:31.560Z,100668.97
2023-04-15T15:27:58.603Z,100668.13
2023-04-15T15:30:25.324Z,100679.13
2023-04-15T15:32:52.094Z,100661.59
2023-04-15T15:35:20.283Z,100678.56
2023-04-15T15:37:47.145Z,100683.84
2023-04-15T15:40:14.049Z,100680.09
2023-04-15T15:42:40.752Z,100685.78
2023-04-15T15:45:07.915Z,100692.06
2023-04-15T15:47:34.612Z,100687.75
2023-04-15T15:50:02.029Z,100690.38
2023-04-15T15:52:31.009Z,100692.06
2023-04-15T15:54:57.550Z,100697.31
2023-04-15T15:57:24.137Z,100687.31
2023-04-15T15:59:53.074Z,100706.69
2023-04-15T16:02:40.074Z,100705.84
2023-04-15T16:05:11.429Z,100710.41
2023-04-15T16:07:39.325Z,100716.81
2023-04-15T16:10:07.128Z,100710.53
2023-04-15T16:12:35.053Z,100720.81
2023-04-15T16:15:02.020Z,100712.84
2023-04-15T16:17:28.597Z,100714.94
2023-04-15T16:19:57.880Z,100719.13
2023-04-15T16:22:27.786Z,100723.13
2023-04-15T16:24:55.704Z,100713.91
2023-04-15T16:27:22.316Z,100736.31
2023-04-15T16:29:48.842Z,100739.78
2023-04-15T16:32:15.507Z,100740.34
2023-04-15T16:34:42.257Z,100750.50
2023-04-15T16:37:08.972Z,100745.75
2023-04-15T16:39:35.911Z,100735.97
2023-04-15T16:42:03.974Z,100753.66
2023-04-15T16:44:30.570Z,100734.53
2023-04-15T16:46:57.223Z,100759.56
2023-04-15T16:49:23.740Z,100750.38
2023-04-15T16:51:50.565Z,100756.84
2023-04-15T16:54:17.097Z,100771.50
2023-04-15T16:56:43.933Z,100768.72
2023-04-15T16:59:11.847Z,100775.94
2023-04-15T17:01:39.716Z,100784.94
2023-04-15T17:04:07.163Z,100782.31
2023-04-15T17:06:33.910Z,100785.84
2023-04-15T17:09:00.388Z,100786.69
2023-04-15T17:11:27.567Z,100770.34
2023-04-15T17:13:54.125Z,100788.25
2023-04-15T17:16:22.129Z,100801.69
2023-04-15T17:18:48.968Z,100800.03
2023-04-15T17:21:16.372Z,100806.53
2023-04-15T17:23:42.902Z,100811.81
2023-04-15T17:26:09.497Z,100783.38
2023-04-15T17:28:36.025Z,100808.72
2023-04-15T17:31:03.616Z,100819.19
2023-04-15T17:34:00.812Z,100825.19
2023-04-15T17:36:18.355Z,100822.22
2023-04-15T17:38:44.880Z,100826.28
2023-04-15T17:41:11.484Z,100821.47
2023-04-15T17:43:37.994Z,100832.16
2023-04-15T17:46:06.088Z,100838.06
2023-04-15T17:48:34.242Z,100839.13
2023-04-15T17:51:00.869Z,100842.78
2023-04-15T17:53:27.389Z,100843.22
2023-04-15T17:55:53.964Z,100839.78
2023-04-15T17:58:20.573Z,100849.03
2023-04-15T18:00:47.525Z,100852.47
2023-04-15T18:03:14.693Z,100851.03
2023-04-15T18:05:42.937Z,100851.31
2023-04-15T18:08:09.722Z,100865.59
2023-04-15T18:10:36.412Z,100867.16
2023-04-15T18:13:02.933Z,100862.22
2023-04-15T18:15:29.593Z,100826.34
2023-04-15T18:17:56.533Z,100870.03
2023-04-15T18:20:23.436Z,100857.59
2023-04-15T18:22:51.898Z,100880.22
2023-04-15T18:25:18.987Z,100862.63
2023-04-15T18:27:45.509Z,100882.97
2023-04-15T18:30:12.604Z,100884.78
2023-04-15T18:32:39.533Z,100895.00
2023-04-15T18:35:06.963Z,100900.41
2023-04-15T18:37:33.482Z,100903.16
2023-04-15T18:40:01.578Z,100903.03
2023-04-15T18:42:28.383Z,100894.06
2023-04-15T18:44:55.007Z,100914.44
2023-04-15T18:47:21.556Z,100916.09
2023-04-15T18:49:48.206Z,100926.91
2023-04-15T18:52:14.686Z,100923.06
2023-04-15T18:54:41.282Z,100927.50
2023-04-15T18:57:09.525Z,100931.44
2023-04-15T18:59:36.351Z,100940.81
2023-04-15T19:02:03.054Z,100945.09
2023-04-15T19:04:29.949Z,100944.16
2023-04-15T19:06:56.606Z,100946.53
2023-04-15T19:09:23.218Z,100948.59
2023-04-15T19:11:49.760Z,100956.59
2023-04-15T19:14:18.130Z,100959.38
2023-04-15T19:16:44.695Z,100938.06
2023-04-15T19:19:11.370Z,100959.25
2023-04-15T19:21:37.879Z,100954.09
2023-04-15T19:24:04.746Z,100964.78
2023-04-15T19:26:31.291Z,100972.53
2023-04-15T19:28:57.834Z,100974.34
2023-04-15T19:31:25.890Z,100966.91
2023-04-15T19:33:52.610Z,100977.69
2023-04-15T19:36:19.150Z,100980.34
2023-04-15T19:38:45.740Z,100981.75
2023-04-15T19:41:12.249Z,100983.72
2023-04-15T19:43:38.854Z,100973.84
2023-04-15T19:46:06.683Z,100985.03
2023-04-15T19:48:35.099Z,100982.75
2023-04-15T19:51:01.661Z,100981.28
2023-04-15T19:53:29.232Z,100991.63
2023-04-15T19:55:56.217Z,100992.56
2023-04-15T19:58:22.803Z,100997.44
2023-04-15T20:00:49.315Z,100982.00
2023-04-15T20:03:16.144Z,100988.34
2023-04-15T20:05:44.328Z,100997.94
2023-04-15T20:08:10.982Z,101006.44
2023-04-15T20:10:37.755Z,101004.78
2023-04-15T20:13:04.466Z,101011.84
2023-04-15T20:15:31.078Z,101009.31
2023-04-15T20:17:57.766Z,101005.00
2023-04-15T20:20:24.315Z,101015.78
2023-04-15T20:22:52.261Z,101007.28
2023-04-15T20:25:18.858Z,101016.28
2023-04-15T20:27:45.559Z,101020.31
2023-04-15T20:30:12.156Z,101031.94
2023-04-15T20:32:38.936Z,101025.22
2023-04-15T20:35:06.830Z,101008.44
2023-04-15T20:37:34.084Z,101030.50
2023-04-15T20:40:02.431Z,101023.19
2023-04-15T20:42:32.331Z,101030.50
2023-04-15T20:44:59.215Z,101027.00
2023-04-15T20:47:26.065Z,101034.56
2023-04-15T20:49:52.656Z,101035.75
2023-04-15T20:52:19.306Z,101036.34
2023-04-15T20:54:45.873Z,101038.25
2023-04-15T20:57:13.891Z,101033.00
2023-04-15T20:59:40.418Z,101037.75
2023-04-15T21:02:07.154Z,101040.38
2023-04-15T21:04:33.785Z,101034.25
2023-04-15T21:07:00.706Z,101035.94
2023-04-15T21:09:27.393Z,101038.94
2023-04-15T21:12:00.987Z,101032.81
2023-04-15T21:14:29.500Z,101040.38
2023-04-15T21:16:56.780Z,101035.25
2023-04-15T21:19:23.605Z,101043.25
2023-04-15T21:21:50.193Z,101038.81
2023-04-15T21:24:16.896Z,101050.91
2023-04-15T21:26:43.427Z,101052.84
2023-04-15T21:29:11.748Z,101006.88
2023-04-15T21:31:40.044Z,101055.59
2023-04-15T21:34:06.724Z,101067.69
2023-04-15T21:36:33.360Z,101054.00
2023-04-15T21:39:00.054Z,101051.16
2023-04-15T21:41:27.021Z,101073.66
2023-04-15T21:43:53.849Z,101074.41
2023-04-15T21:46:23.090Z,101079.69
2023-04-15T21:48:52.801Z,101075.81
2023-04-15T21:51:19.449Z,101093.78
2023-04-15T21:53:46.187Z,101090.44
2023-04-15T21:56:12.752Z,101092.34
2023-04-15T21:58:39.449Z,101092.34
2023-04-15T22:01:06.397Z,101082.38
2023-04-15T22:03:34.825Z,101094.16
2023-04-15T22:06:03.784Z,101086.69
2023-04-15T22:08:38.171Z,101102.25
2023-04-15T22:11:18.886Z,101103.09
2023-04-15T22:13:45.455Z,101107.53
2023-04-15T22:16:11.999Z,101110.66
2023-04-15T22:18:38.672Z,101097.47
2023-04-15T22:21:06.533Z,101109.84
2023-04-15T22:23:33.316Z,101106.28
2023-04-15T22:25:59.884Z,101107.47
2023-04-15T22:28:26.464Z,101117.66
2023-04-15T22:30:53.313Z,101113.97
2023-04-15T22:33:20.067Z,101118.41
2023-04-15T22:35:46.570Z,101129.38
2023-04-15T22:38:14.547Z,101124.13
2023-04-15T22:40:41.092Z,101120.66
2023-04-15T22:43:07.707Z,101132.22
2023-04-15T22:45:34.222Z,101132.47
2023-04-15T22:48:00.890Z,101133.50
2023-04-15T22:50:27.419Z,101133.50
2023-04-15T22:52:54.011Z,101138.69
2023-04-15T22:55:22.090Z,101134.81
2023-04-15T22:57:48.658Z,101152.16
2023-04-15T23:00:15.246Z,101151.19
2023-04-15T23:02:41.945Z,101150.47
2023-04-15T23:05:12.866Z,101157.19
2023-04-15T23:07:40.066Z,101156.97
2023-04-15T23:10:08.166Z,101162.34
2023-04-15T23:12:36.138Z,101161.50
2023-04-15T23:15:02.848Z,101144.38
2023-04-15T23:17:29.455Z,101152.78
2023-04-15T23:19:56.009Z,101161.09
2023-04-15T23:22:22.572Z,101147.72
2023-04-15T23:24:49.113Z,101149.72
2023-04-15T23:27:15.955Z,101143.00
2023-04-15T23:29:43.797Z,101147.53
2023-04-15T23:32:10.412Z,101134.09
2023-04-15T23:34:37.285Z,101147.53
2023-04-15T23:37:03.860Z,101142.94
2023-04-15T23:39:30.437Z,101133.69
2023-04-15T23:41:57.123Z,101158.19
2023-04-15T23:44:23.654Z,101148.72
2023-04-15T23:46:51.653Z,101152.94
2023-04-15T23:49:20.250Z,101146.25
2023-04-15T23:51:47.214Z,101147.47
2023-04-15T23:54:14.352Z,101155.03
2023-04-15T23:56:41.193Z,101157.66
2023-04-15T23:59:07.949Z,101158.50
